sensor_id;sensor_type;location;lat;lon;timestamp;temperature;humidity
21778;DHT22;11050;52.222;20.916;2022-08-19T00:01:31;22.30;99.90
21778;DHT22;11050;52.222;20.916;2022-08-19T00:04:01;22.20;99.90
21778;DHT22;11050;52.222;20.916;2022-08-19T00:06:30;22.20;99.90
21778;DHT22;11050;52.222;20.916;2022-08-19T00:08:57;22.20;99.90
21778;DHT22;11050;52.222;20.916;2022-08-19T00:11:23;22.10;99.90
21778;DHT22;11050;52.222;20.916;2022-08-19T00:13:52;22.10;99.90
21778;DHT22;11050;52.222;20.916;2022-08-19T00:16:19;22.10;99.90
21778;DHT22;11050;52.222;20.916;2022-08-19T00:18:46;22.10;99.90
21778;DHT22;11050;52.222;20.916;2022-08-19T00:21:13;22.10;99.90
21778;DHT22;11050;52.222;20.916;2022-08-19T00:23:40;22.10;99.90
21778;DHT22;11050;52.222;20.916;2022-08-19T00:26:09;22.10;99.90
21778;DHT22;11050;52.222;20.916;2022-08-19T00:28:36;22.00;99.90
21778;DHT22;11050;52.222;20.916;2022-08-19T00:31:04;22.00;99.90
21778;DHT22;11050;52.222;20.916;2022-08-19T00:33:31;22.00;99.90
21778;DHT22;11050;52.222;20.916;2022-08-19T00:35:59;22.00;99.90
21778;DHT22;11050;52.222;20.916;2022-08-19T00:38:26;21.90;99.90
21778;DHT22;11050;52.222;20.916;2022-08-19T00:40:52;21.90;99.90
21778;DHT22;11050;52.222;20.916;2022-08-19T00:43:21;21.80;99.90
21778;DHT22;11050;52.222;20.916;2022-08-19T00:45:48;21.80;99.90
21778;DHT22;11050;52.222;20.916;2022-08-19T00:48:16;21.80;99.90
21778;DHT22;11050;52.222;20.916;2022-08-19T00:50:44;21.70;99.90
21778;DHT22;11050;52.222;20.916;2022-08-19T00:53:15;21.70;99.90
21778;DHT22;11050;52.222;20.916;2022-08-19T00:55:49;21.70;99.90
21778;DHT22;11050;52.222;20.916;2022-08-19T00:58:20;21.70;99.90
21778;DHT22;11050;52.222;20.916;2022-08-19T01:00:49;21.70;99.90
21778;DHT22;11050;52.222;20.916;2022-08-19T01:03:18;21.60;99.90
21778;DHT22;11050;52.222;20.916;2022-08-19T01:05:47;21.60;99.90
21778;DHT22;11050;52.222;20.916;2022-08-19T01:08:17;21.60;99.90
21778;DHT22;11050;52.222;20.916;2022-08-19T01:10:48;21.50;99.90
21778;DHT22;11050;52.222;20.916;2022-08-19T01:13:19;21.50;99.90
21778;DHT22;11050;52.222;20.916;2022-08-19T01:16:01;21.50;99.90
21778;DHT22;11050;52.222;20.916;2022-08-19T01:18:30;21.50;99.90
21778;DHT22;11050;52.222;20.916;2022-08-19T01:21:08;21.50;99.90
21778;DHT22;11050;52.222;20.916;2022-08-19T01:23:42;21.50;99.90
21778;DHT22;11050;52.222;20.916;2022-08-19T01:26:21;21.40;99.90
21778;DHT22;11050;52.222;20.916;2022-08-19T01:28:50;21.40;99.90
21778;DHT22;11050;52.222;20.916;2022-08-19T01:31:22;21.40;99.90
21778;DHT22;11050;52.222;20.916;2022-08-19T01:33:51;21.40;99.90
21778;DHT22;11050;52.222;20.916;2022-08-19T01:36:29;21.40;99.90
21778;DHT22;11050;52.222;20.916;2022-08-19T01:39:03;21.30;99.90
21778;DHT22;11050;52.222;20.916;2022-08-19T01:41:34;21.30;99.90
21778;DHT22;11050;52.222;20.916;2022-08-19T01:44:01;21.30;99.90
21778;DHT22;11050;52.222;20.916;2022-08-19T01:46:30;21.30;99.90
21778;DHT22;11050;52.222;20.916;2022-08-19T01:48:57;21.30;99.90
21778;DHT22;11050;52.222;20.916;2022-08-19T01:51:23;21.20;99.90
21778;DHT22;11050;52.222;20.916;2022-08-19T01:53:51;21.20;99.90
21778;DHT22;11050;52.222;20.916;2022-08-19T01:56:18;21.20;99.90
21778;DHT22;11050;52.222;20.916;2022-08-19T01:58:52;21.20;99.90
21778;DHT22;11050;52.222;20.916;2022-08-19T02:01:24;21.20;99.90
21778;DHT22;11050;52.222;20.916;2022-08-19T02:03:49;21.20;99.90
21778;DHT22;11050;52.222;20.916;2022-08-19T02:06:17;21.20;99.90
21778;DHT22;11050;52.222;20.916;2022-08-19T02:08:43;21.10;99.90
21778;DHT22;11050;52.222;20.916;2022-08-19T02:11:22;21.10;99.90
21778;DHT22;11050;52.222;20.916;2022-08-19T02:14:00;21.10;99.90
21778;DHT22;11050;52.222;20.916;2022-08-19T02:16:28;21.10;99.90
21778;DHT22;11050;52.222;20.916;2022-08-19T02:18:55;21.10;99.90
21778;DHT22;11050;52.222;20.916;2022-08-19T02:21:23;21.10;99.90
21778;DHT22;11050;52.222;20.916;2022-08-19T02:23:50;21.10;99.90
21778;DHT22;11050;52.222;20.916;2022-08-19T02:26:17;21.00;99.90
21778;DHT22;11050;52.222;20.916;2022-08-19T02:28:44;21.00;99.90
21778;DHT22;11050;52.222;20.916;2022-08-19T02:31:13;21.00;99.90
21778;DHT22;11050;52.222;20.916;2022-08-19T02:33:41;21.00;99.90
21778;DHT22;11050;52.222;20.916;2022-08-19T02:36:08;21.00;99.90
21778;DHT22;11050;52.222;20.916;2022-08-19T02:38:35;21.00;99.90
21778;DHT22;11050;52.222;20.916;2022-08-19T02:41:05;21.00;99.90
21778;DHT22;11050;52.222;20.916;2022-08-19T02:43:35;21.00;99.90
21778;DHT22;11050;52.222;20.916;2022-08-19T02:46:23;21.00;99.90
21778;DHT22;11050;52.222;20.916;2022-08-19T02:48:56;21.00;99.90
21778;DHT22;11050;52.222;20.916;2022-08-19T02:51:33;21.00;99.90
21778;DHT22;11050;52.222;20.916;2022-08-19T02:54:01;21.00;99.90
21778;DHT22;11050;52.222;20.916;2022-08-19T02:56:30;21.00;99.90
21778;DHT22;11050;52.222;20.916;2022-08-19T02:58:57;20.90;99.90
21778;DHT22;11050;52.222;20.916;2022-08-19T03:01:26;20.90;99.90
21778;DHT22;11050;52.222;20.916;2022-08-19T03:03:57;20.90;99.90
21778;DHT22;11050;52.222;20.916;2022-08-19T03:06:25;20.90;99.90
21778;DHT22;11050;52.222;20.916;2022-08-19T03:08:53;20.90;99.90
21778;DHT22;11050;52.222;20.916;2022-08-19T03:11:25;20.80;99.90
21778;DHT22;11050;52.222;20.916;2022-08-19T03:13:53;20.80;99.90
21778;DHT22;11050;52.222;20.916;2022-08-19T03:16:22;20.80;99.90
21778;DHT22;11050;52.222;20.916;2022-08-19T03:18:50;20.80;99.90
21778;DHT22;11050;52.222;20.916;2022-08-19T03:21:21;20.70;99.90
21778;DHT22;11050;52.222;20.916;2022-08-19T03:23:53;20.70;99.90
21778;DHT22;11050;52.222;20.916;2022-08-19T03:26:19;20.70;99.90
21778;DHT22;11050;52.222;20.916;2022-08-19T03:28:46;20.70;99.90
21778;DHT22;11050;52.222;20.916;2022-08-19T03:31:19;20.70;99.90
21778;DHT22;11050;52.222;20.916;2022-08-19T03:33:48;20.70;99.90
21778;DHT22;11050;52.222;20.916;2022-08-19T03:36:19;20.70;99.90
21778;DHT22;11050;52.222;20.916;2022-08-19T03:38:52;20.70;99.90
21778;DHT22;11050;52.222;20.916;2022-08-19T03:41:25;20.70;99.90
21778;DHT22;11050;52.222;20.916;2022-08-19T03:43:54;20.70;99.90
21778;DHT22;11050;52.222;20.916;2022-08-19T03:46:27;20.70;99.90
21778;DHT22;11050;52.222;20.916;2022-08-19T03:48:57;20.80;99.90
21778;DHT22;11050;52.222;20.916;2022-08-19T03:51:30;20.80;99.90
21778;DHT22;11050;52.222;20.916;2022-08-19T03:54:01;20.80;99.90
21778;DHT22;11050;52.222;20.916;2022-08-19T03:56:30;20.80;99.90
21778;DHT22;11050;52.222;20.916;2022-08-19T03:58:57;20.80;99.90
21778;DHT22;11050;52.222;20.916;2022-08-19T04:01:26;20.80;99.90
21778;DHT22;11050;52.222;20.916;2022-08-19T04:03:55;20.80;99.90
21778;DHT22;11050;52.222;20.916;2022-08-19T04:06:25;20.90;99.90
21778;DHT22;11050;52.222;20.916;2022-08-19T04:08:54;20.90;99.90
21778;DHT22;11050;52.222;20.916;2022-08-19T04:11:24;20.90;99.90
21778;DHT22;11050;52.222;20.916;2022-08-19T04:13:54;21.00;99.90
21778;DHT22;11050;52.222;20.916;2022-08-19T04:16:21;21.00;99.90
21778;DHT22;11050;52.222;20.916;2022-08-19T04:18:50;21.00;99.90
21778;DHT22;11050;52.222;20.916;2022-08-19T04:21:22;21.10;99.90
21778;DHT22;11050;52.222;20.916;2022-08-19T04:23:50;21.10;99.90
21778;DHT22;11050;52.222;20.916;2022-08-19T04:26:18;21.20;99.90
21778;DHT22;11050;52.222;20.916;2022-08-19T04:28:58;21.30;99.90
21778;DHT22;11050;52.222;20.916;2022-08-19T04:31:31;21.30;99.90
21778;DHT22;11050;52.222;20.916;2022-08-19T04:34:02;21.40;99.90
21778;DHT22;11050;52.222;20.916;2022-08-19T04:36:33;21.50;99.90
21778;DHT22;11050;52.222;20.916;2022-08-19T04:39:04;21.60;99.90
21778;DHT22;11050;52.222;20.916;2022-08-19T04:41:32;21.60;99.90
21778;DHT22;11050;52.222;20.916;2022-08-19T04:44:17;21.80;99.90
21778;DHT22;11050;52.222;20.916;2022-08-19T04:46:44;21.90;99.90
21778;DHT22;11050;52.222;20.916;2022-08-19T04:49:13;22.00;99.90
21778;DHT22;11050;52.222;20.916;2022-08-19T04:51:42;22.00;99.90
21778;DHT22;11050;52.222;20.916;2022-08-19T04:54:11;22.10;99.90
21778;DHT22;11050;52.222;20.916;2022-08-19T04:56:39;22.20;99.90
21778;DHT22;11050;52.222;20.916;2022-08-19T04:59:05;22.30;99.90
21778;DHT22;11050;52.222;20.916;2022-08-19T05:01:33;22.40;99.90
21778;DHT22;11050;52.222;20.916;2022-08-19T05:04:00;22.50;99.90
21778;DHT22;11050;52.222;20.916;2022-08-19T05:06:28;22.50;99.90
21778;DHT22;11050;52.222;20.916;2022-08-19T05:08:56;22.60;99.90
21778;DHT22;11050;52.222;20.916;2022-08-19T05:11:27;22.60;99.90
21778;DHT22;11050;52.222;20.916;2022-08-19T05:13:55;22.60;99.90
21778;DHT22;11050;52.222;20.916;2022-08-19T05:16:23;22.70;99.90
21778;DHT22;11050;52.222;20.916;2022-08-19T05:18:51;22.70;99.90
21778;DHT22;11050;52.222;20.916;2022-08-19T05:21:35;22.70;99.90
21778;DHT22;11050;52.222;20.916;2022-08-19T05:24:22;22.70;99.90
21778;DHT22;11050;52.222;20.916;2022-08-19T05:26:51;22.70;99.90
21778;DHT22;11050;52.222;20.916;2022-08-19T05:29:20;22.80;99.90
21778;DHT22;11050;52.222;20.916;2022-08-19T05:31:47;22.80;99.90
21778;DHT22;11050;52.222;20.916;2022-08-19T05:34:18;22.90;99.90
21778;DHT22;11050;52.222;20.916;2022-08-19T05:36:53;22.90;99.90
21778;DHT22;11050;52.222;20.916;2022-08-19T05:39:24;23.00;99.90
21778;DHT22;11050;52.222;20.916;2022-08-19T05:41:56;23.10;99.90
21778;DHT22;11050;52.222;20.916;2022-08-19T05:44:26;23.10;99.90
21778;DHT22;11050;52.222;20.916;2022-08-19T05:47:00;23.20;99.90
21778;DHT22;11050;52.222;20.916;2022-08-19T05:49:30;23.30;99.90
21778;DHT22;11050;52.222;20.916;2022-08-19T05:51:57;23.40;99.90
21778;DHT22;11050;52.222;20.916;2022-08-19T05:54:24;23.50;99.90
21778;DHT22;11050;52.222;20.916;2022-08-19T05:56:52;23.60;99.90
21778;DHT22;11050;52.222;20.916;2022-08-19T05:59:20;23.70;99.90
21778;DHT22;11050;52.222;20.916;2022-08-19T06:01:47;23.80;99.90
21778;DHT22;11050;52.222;20.916;2022-08-19T06:04:16;23.80;99.90
21778;DHT22;11050;52.222;20.916;2022-08-19T06:06:45;23.90;99.90
21778;DHT22;11050;52.222;20.916;2022-08-19T06:09:12;24.00;99.90
21778;DHT22;11050;52.222;20.916;2022-08-19T06:11:49;24.10;99.90
21778;DHT22;11050;52.222;20.916;2022-08-19T06:14:23;24.20;99.90
21778;DHT22;11050;52.222;20.916;2022-08-19T06:16:52;24.30;99.90
21778;DHT22;11050;52.222;20.916;2022-08-19T06:19:20;24.40;99.90
21778;DHT22;11050;52.222;20.916;2022-08-19T06:21:49;24.50;99.90
21778;DHT22;11050;52.222;20.916;2022-08-19T06:24:19;24.60;99.90
21778;DHT22;11050;52.222;20.916;2022-08-19T06:26:50;24.70;99.90
21778;DHT22;11050;52.222;20.916;2022-08-19T06:29:18;24.70;99.90
21778;DHT22;11050;52.222;20.916;2022-08-19T06:31:48;24.80;99.90
21778;DHT22;11050;52.222;20.916;2022-08-19T06:34:16;24.90;99.90
21778;DHT22;11050;52.222;20.916;2022-08-19T06:36:46;25.00;99.90
21778;DHT22;11050;52.222;20.916;2022-08-19T06:39:17;25.10;99.90
21778;DHT22;11050;52.222;20.916;2022-08-19T06:41:51;25.20;99.90
21778;DHT22;11050;52.222;20.916;2022-08-19T06:44:21;25.20;99.90
21778;DHT22;11050;52.222;20.916;2022-08-19T06:46:48;25.30;99.90
21778;DHT22;11050;52.222;20.916;2022-08-19T06:49:15;25.40;99.90
21778;DHT22;11050;52.222;20.916;2022-08-19T06:51:44;25.40;99.90
21778;DHT22;11050;52.222;20.916;2022-08-19T06:54:16;25.40;99.90
21778;DHT22;11050;52.222;20.916;2022-08-19T06:56:43;25.40;99.90
21778;DHT22;11050;52.222;20.916;2022-08-19T06:59:13;25.40;99.90
21778;DHT22;11050;52.222;20.916;2022-08-19T07:01:49;25.40;99.90
21778;DHT22;11050;52.222;20.916;2022-08-19T07:04:35;25.50;99.90
21778;DHT22;11050;52.222;20.916;2022-08-19T07:07:10;25.50;99.90
21778;DHT22;11050;52.222;20.916;2022-08-19T07:09:42;25.50;99.90
21778;DHT22;11050;52.222;20.916;2022-08-19T07:12:11;25.60;99.90
21778;DHT22;11050;52.222;20.916;2022-08-19T07:14:39;25.70;99.90
21778;DHT22;11050;52.222;20.916;2022-08-19T07:17:09;25.80;99.90
21778;DHT22;11050;52.222;20.916;2022-08-19T07:19:37;25.80;99.90
21778;DHT22;11050;52.222;20.916;2022-08-19T07:22:06;25.90;99.90
21778;DHT22;11050;52.222;20.916;2022-08-19T07:24:37;26.00;99.90
21778;DHT22;11050;52.222;20.916;2022-08-19T07:27:05;26.10;99.90
21778;DHT22;11050;52.222;20.916;2022-08-19T07:29:33;26.20;99.90
21778;DHT22;11050;52.222;20.916;2022-08-19T07:32:01;26.20;99.90
21778;DHT22;11050;52.222;20.916;2022-08-19T07:34:30;26.40;99.90
21778;DHT22;11050;52.222;20.916;2022-08-19T07:36:59;26.50;99.90
21778;DHT22;11050;52.222;20.916;2022-08-19T07:39:29;26.60;99.90
21778;DHT22;11050;52.222;20.916;2022-08-19T07:42:00;26.70;99.90
21778;DHT22;11050;52.222;20.916;2022-08-19T07:44:27;26.80;99.90
21778;DHT22;11050;52.222;20.916;2022-08-19T07:46:55;26.90;99.90
21778;DHT22;11050;52.222;20.916;2022-08-19T07:49:23;27.00;99.90
21778;DHT22;11050;52.222;20.916;2022-08-19T07:51:54;27.10;99.90
21778;DHT22;11050;52.222;20.916;2022-08-19T07:54:25;27.20;99.90
21778;DHT22;11050;52.222;20.916;2022-08-19T07:56:52;27.30;99.90
21778;DHT22;11050;52.222;20.916;2022-08-19T07:59:19;27.30;99.90
21778;DHT22;11050;52.222;20.916;2022-08-19T08:01:46;27.30;99.90
21778;DHT22;11050;52.222;20.916;2022-08-19T08:04:13;27.30;99.90
21778;DHT22;11050;52.222;20.916;2022-08-19T08:06:58;27.40;99.90
21778;DHT22;11050;52.222;20.916;2022-08-19T08:09:43;27.40;99.90
21778;DHT22;11050;52.222;20.916;2022-08-19T08:12:17;27.50;99.90
21778;DHT22;11050;52.222;20.916;2022-08-19T08:14:56;27.50;99.90
21778;DHT22;11050;52.222;20.916;2022-08-19T08:17:27;27.60;99.90
21778;DHT22;11050;52.222;20.916;2022-08-19T08:19:54;27.60;99.90
21778;DHT22;11050;52.222;20.916;2022-08-19T08:22:22;27.70;99.90
21778;DHT22;11050;52.222;20.916;2022-08-19T08:25:11;27.80;99.90
21778;DHT22;11050;52.222;20.916;2022-08-19T08:27:42;27.90;99.90
21778;DHT22;11050;52.222;20.916;2022-08-19T08:30:20;28.00;99.90
21778;DHT22;11050;52.222;20.916;2022-08-19T08:32:48;28.10;99.90
21778;DHT22;11050;52.222;20.916;2022-08-19T08:35:19;28.20;99.90
21778;DHT22;11050;52.222;20.916;2022-08-19T08:37:48;28.30;99.90
21778;DHT22;11050;52.222;20.916;2022-08-19T08:40:34;28.40;99.90
21778;DHT22;11050;52.222;20.916;2022-08-19T08:43:34;28.50;99.90
21778;DHT22;11050;52.222;20.916;2022-08-19T08:46:14;28.60;99.90
21778;DHT22;11050;52.222;20.916;2022-08-19T08:51:37;28.80;99.90
21778;DHT22;11050;52.222;20.916;2022-08-19T08:54:10;28.80;99.90
21778;DHT22;11050;52.222;20.916;2022-08-19T08:56:39;28.90;99.90
21778;DHT22;11050;52.222;20.916;2022-08-19T08:59:29;29.00;99.90
21778;DHT22;11050;52.222;20.916;2022-08-19T09:01:59;29.10;99.90
21778;DHT22;11050;52.222;20.916;2022-08-19T09:04:26;29.20;99.90
21778;DHT22;11050;52.222;20.916;2022-08-19T09:07:06;29.20;99.90
21778;DHT22;11050;52.222;20.916;2022-08-19T09:09:39;29.30;99.90
21778;DHT22;11050;52.222;20.916;2022-08-19T09:12:43;29.40;99.90
21778;DHT22;11050;52.222;20.916;2022-08-19T09:15:15;29.40;99.90
21778;DHT22;11050;52.222;20.916;2022-08-19T09:17:48;29.50;99.20
21778;DHT22;11050;52.222;20.916;2022-08-19T09:20:23;29.60;98.30
21778;DHT22;11050;52.222;20.916;2022-08-19T09:22:49;29.60;97.10
21778;DHT22;11050;52.222;20.916;2022-08-19T09:25:19;29.70;97.00
21778;DHT22;11050;52.222;20.916;2022-08-19T09:27:50;29.80;97.30
21778;DHT22;11050;52.222;20.916;2022-08-19T09:30:27;29.90;96.50
21778;DHT22;11050;52.222;20.916;2022-08-19T09:32:55;30.00;95.10
21778;DHT22;11050;52.222;20.916;2022-08-19T09:35:23;30.10;94.60
21778;DHT22;11050;52.222;20.916;2022-08-19T09:37:52;30.10;92.10
21778;DHT22;11050;52.222;20.916;2022-08-19T09:40:19;30.20;91.30
21778;DHT22;11050;52.222;20.916;2022-08-19T09:42:46;30.20;90.90
21778;DHT22;11050;52.222;20.916;2022-08-19T09:45:13;30.30;90.90
21778;DHT22;11050;52.222;20.916;2022-08-19T09:47:40;30.30;92.20
21778;DHT22;11050;52.222;20.916;2022-08-19T09:50:09;30.40;91.20
21778;DHT22;11050;52.222;20.916;2022-08-19T09:52:36;30.50;88.10
21778;DHT22;11050;52.222;20.916;2022-08-19T09:55:04;30.60;86.70
21778;DHT22;11050;52.222;20.916;2022-08-19T09:57:34;30.70;84.50
21778;DHT22;11050;52.222;20.916;2022-08-19T10:00:02;30.70;85.00
21778;DHT22;11050;52.222;20.916;2022-08-19T10:02:30;30.80;86.20
21778;DHT22;11050;52.222;20.916;2022-08-19T10:04:56;30.90;86.00
21778;DHT22;11050;52.222;20.916;2022-08-19T10:07:41;31.00;86.70
21778;DHT22;11050;52.222;20.916;2022-08-19T10:10:07;31.00;83.00
21778;DHT22;11050;52.222;20.916;2022-08-19T10:12:35;31.10;82.10
21778;DHT22;11050;52.222;20.916;2022-08-19T10:15:01;31.20;78.90
21778;DHT22;11050;52.222;20.916;2022-08-19T10:17:29;31.30;81.20
21778;DHT22;11050;52.222;20.916;2022-08-19T10:19:55;31.40;79.50
21778;DHT22;11050;52.222;20.916;2022-08-19T10:22:21;31.50;80.30
21778;DHT22;11050;52.222;20.916;2022-08-19T10:24:47;31.60;78.30
21778;DHT22;11050;52.222;20.916;2022-08-19T10:27:14;31.70;77.70
21778;DHT22;11050;52.222;20.916;2022-08-19T10:29:40;31.80;78.00
21778;DHT22;11050;52.222;20.916;2022-08-19T10:32:08;31.90;76.70
21778;DHT22;11050;52.222;20.916;2022-08-19T10:34:36;32.10;76.40
21778;DHT22;11050;52.222;20.916;2022-08-19T10:37:04;32.10;74.20
21778;DHT22;11050;52.222;20.916;2022-08-19T10:39:35;32.30;72.70
21778;DHT22;11050;52.222;20.916;2022-08-19T10:42:05;32.40;71.70
21778;DHT22;11050;52.222;20.916;2022-08-19T10:44:33;32.50;72.60
21778;DHT22;11050;52.222;20.916;2022-08-19T10:47:01;32.60;70.70
21778;DHT22;11050;52.222;20.916;2022-08-19T10:49:27;32.80;70.50
21778;DHT22;11050;52.222;20.916;2022-08-19T10:51:53;32.90;67.50
21778;DHT22;11050;52.222;20.916;2022-08-19T10:54:39;33.10;67.90
21778;DHT22;11050;52.222;20.916;2022-08-19T10:57:23;33.20;64.00
21778;DHT22;11050;52.222;20.916;2022-08-19T10:59:55;33.30;64.10
21778;DHT22;11050;52.222;20.916;2022-08-19T11:02:21;33.40;65.50
21778;DHT22;11050;52.222;20.916;2022-08-19T11:04:47;33.50;63.90
21778;DHT22;11050;52.222;20.916;2022-08-19T11:07:15;33.70;61.60
21778;DHT22;11050;52.222;20.916;2022-08-19T11:09:42;33.70;60.00
21778;DHT22;11050;52.222;20.916;2022-08-19T11:12:09;33.90;59.20
21778;DHT22;11050;52.222;20.916;2022-08-19T11:14:36;33.90;58.60
21778;DHT22;11050;52.222;20.916;2022-08-19T11:17:04;34.00;58.20
21778;DHT22;11050;52.222;20.916;2022-08-19T11:19:30;34.20;58.80
21778;DHT22;11050;52.222;20.916;2022-08-19T11:21:57;34.30;57.80
21778;DHT22;11050;52.222;20.916;2022-08-19T11:24:28;34.50;58.30
21778;DHT22;11050;52.222;20.916;2022-08-19T11:27:04;34.70;58.00
21778;DHT22;11050;52.222;20.916;2022-08-19T11:29:37;34.80;55.90
21778;DHT22;11050;52.222;20.916;2022-08-19T11:32:09;34.90;56.30
21778;DHT22;11050;52.222;20.916;2022-08-19T11:34:36;35.00;55.90
21778;DHT22;11050;52.222;20.916;2022-08-19T11:37:03;35.20;57.20
21778;DHT22;11050;52.222;20.916;2022-08-19T11:39:30;35.30;55.30
21778;DHT22;11050;52.222;20.916;2022-08-19T11:41:58;35.40;55.00
21778;DHT22;11050;52.222;20.916;2022-08-19T11:44:25;35.50;55.10
21778;DHT22;11050;52.222;20.916;2022-08-19T11:46:51;35.70;55.10
21778;DHT22;11050;52.222;20.916;2022-08-19T11:49:19;35.80;55.20
21778;DHT22;11050;52.222;20.916;2022-08-19T11:51:47;35.90;54.20
21778;DHT22;11050;52.222;20.916;2022-08-19T11:54:15;36.20;53.40
21778;DHT22;11050;52.222;20.916;2022-08-19T11:56:43;36.20;51.30
21778;DHT22;11050;52.222;20.916;2022-08-19T11:59:11;36.30;51.80
21778;DHT22;11050;52.222;20.916;2022-08-19T12:01:37;36.50;51.00
21778;DHT22;11050;52.222;20.916;2022-08-19T12:04:03;36.50;49.70
21778;DHT22;11050;52.222;20.916;2022-08-19T12:06:32;36.60;50.10
21778;DHT22;11050;52.222;20.916;2022-08-19T12:09:03;36.70;47.90
21778;DHT22;11050;52.222;20.916;2022-08-19T12:11:32;36.70;48.20
21778;DHT22;11050;52.222;20.916;2022-08-19T12:13:58;36.90;49.30
21778;DHT22;11050;52.222;20.916;2022-08-19T12:16:26;37.00;49.20
21778;DHT22;11050;52.222;20.916;2022-08-19T12:18:54;37.10;50.60
21778;DHT22;11050;52.222;20.916;2022-08-19T12:21:26;37.20;47.20
21778;DHT22;11050;52.222;20.916;2022-08-19T12:23:55;37.30;47.70
21778;DHT22;11050;52.222;20.916;2022-08-19T12:26:23;37.40;47.40
21778;DHT22;11050;52.222;20.916;2022-08-19T12:28:50;37.50;47.70
21778;DHT22;11050;52.222;20.916;2022-08-19T12:31:17;37.70;48.10
21778;DHT22;11050;52.222;20.916;2022-08-19T12:33:45;37.90;46.50
21778;DHT22;11050;52.222;20.916;2022-08-19T12:36:14;38.00;46.20
21778;DHT22;11050;52.222;20.916;2022-08-19T12:38:41;38.20;45.90
21778;DHT22;11050;52.222;20.916;2022-08-19T12:41:11;38.20;46.50
21778;DHT22;11050;52.222;20.916;2022-08-19T12:43:38;38.30;45.20
21778;DHT22;11050;52.222;20.916;2022-08-19T12:46:05;38.40;45.40
21778;DHT22;11050;52.222;20.916;2022-08-19T12:48:32;38.50;44.20
21778;DHT22;11050;52.222;20.916;2022-08-19T12:50:58;38.50;42.90
21778;DHT22;11050;52.222;20.916;2022-08-19T12:53:24;38.70;42.90
21778;DHT22;11050;52.222;20.916;2022-08-19T12:55:57;38.70;42.90
21778;DHT22;11050;52.222;20.916;2022-08-19T12:58:26;38.80;42.90
21778;DHT22;11050;52.222;20.916;2022-08-19T13:00:53;38.90;42.80
21778;DHT22;11050;52.222;20.916;2022-08-19T13:03:19;38.90;43.20
21778;DHT22;11050;52.222;20.916;2022-08-19T13:05:45;39.00;41.20
21778;DHT22;11050;52.222;20.916;2022-08-19T13:08:11;39.00;42.80
21778;DHT22;11050;52.222;20.916;2022-08-19T13:10:37;39.00;41.70
21778;DHT22;11050;52.222;20.916;2022-08-19T13:13:05;39.10;41.10
21778;DHT22;11050;52.222;20.916;2022-08-19T13:15:34;39.10;40.50
21778;DHT22;11050;52.222;20.916;2022-08-19T13:18:02;39.00;42.20
21778;DHT22;11050;52.222;20.916;2022-08-19T13:20:28;39.00;40.90
21778;DHT22;11050;52.222;20.916;2022-08-19T13:22:55;39.00;40.90
21778;DHT22;11050;52.222;20.916;2022-08-19T13:25:22;39.10;41.60
21778;DHT22;11050;52.222;20.916;2022-08-19T13:27:49;39.20;41.50
21778;DHT22;11050;52.222;20.916;2022-08-19T13:30:17;39.30;40.70
21778;DHT22;11050;52.222;20.916;2022-08-19T13:33:04;39.30;40.90
21778;DHT22;11050;52.222;20.916;2022-08-19T13:35:50;39.40;41.20
21778;DHT22;11050;52.222;20.916;2022-08-19T13:38:21;39.70;41.00
21778;DHT22;11050;52.222;20.916;2022-08-19T13:40:49;39.80;40.40
21778;DHT22;11050;52.222;20.916;2022-08-19T13:43:18;39.80;39.70
21778;DHT22;11050;52.222;20.916;2022-08-19T13:45:47;39.90;40.50
21778;DHT22;11050;52.222;20.916;2022-08-19T13:48:14;40.00;39.30
21778;DHT22;11050;52.222;20.916;2022-08-19T13:50:43;40.00;38.20
21778;DHT22;11050;52.222;20.916;2022-08-19T13:53:11;39.80;38.90
21778;DHT22;11050;52.222;20.916;2022-08-19T13:55:38;39.80;39.20
21778;DHT22;11050;52.222;20.916;2022-08-19T13:58:09;39.70;38.80
21778;DHT22;11050;52.222;20.916;2022-08-19T14:00:41;39.60;39.00
21778;DHT22;11050;52.222;20.916;2022-08-19T14:03:10;39.70;40.20
21778;DHT22;11050;52.222;20.916;2022-08-19T14:05:36;39.80;38.40
21778;DHT22;11050;52.222;20.916;2022-08-19T14:08:03;39.90;38.00
21778;DHT22;11050;52.222;20.916;2022-08-19T14:10:29;39.80;37.30
21778;DHT22;11050;52.222;20.916;2022-08-19T14:13:00;39.70;37.90
21778;DHT22;11050;52.222;20.916;2022-08-19T14:15:28;39.90;38.00
21778;DHT22;11050;52.222;20.916;2022-08-19T14:17:55;39.90;38.40
21778;DHT22;11050;52.222;20.916;2022-08-19T14:20:21;40.00;37.20
21778;DHT22;11050;52.222;20.916;2022-08-19T14:22:48;40.00;37.40
21778;DHT22;11050;52.222;20.916;2022-08-19T14:25:18;40.00;37.00
21778;DHT22;11050;52.222;20.916;2022-08-19T14:27:47;40.20;37.10
21778;DHT22;11050;52.222;20.916;2022-08-19T14:30:25;40.10;37.60
21778;DHT22;11050;52.222;20.916;2022-08-19T14:32:57;40.20;36.70
21778;DHT22;11050;52.222;20.916;2022-08-19T14:35:25;40.20;36.00
21778;DHT22;11050;52.222;20.916;2022-08-19T14:37:55;40.10;36.10
21778;DHT22;11050;52.222;20.916;2022-08-19T14:40:24;40.00;36.20
21778;DHT22;11050;52.222;20.916;2022-08-19T14:42:53;39.90;36.20
21778;DHT22;11050;52.222;20.916;2022-08-19T14:45:27;39.80;36.60
21778;DHT22;11050;52.222;20.916;2022-08-19T14:47:53;39.70;36.90
21778;DHT22;11050;52.222;20.916;2022-08-19T14:50:20;39.80;36.20
21778;DHT22;11050;52.222;20.916;2022-08-19T14:52:47;39.60;36.50
21778;DHT22;11050;52.222;20.916;2022-08-19T14:55:17;39.60;36.20
21778;DHT22;11050;52.222;20.916;2022-08-19T14:57:44;39.70;36.10
21778;DHT22;11050;52.222;20.916;2022-08-19T15:00:11;39.60;36.70
21778;DHT22;11050;52.222;20.916;2022-08-19T15:02:41;39.60;37.00
21778;DHT22;11050;52.222;20.916;2022-08-19T15:05:09;39.60;36.20
21778;DHT22;11050;52.222;20.916;2022-08-19T15:07:36;39.60;35.80
21778;DHT22;11050;52.222;20.916;2022-08-19T15:10:03;39.60;36.50
21778;DHT22;11050;52.222;20.916;2022-08-19T15:12:33;39.60;35.80
21778;DHT22;11050;52.222;20.916;2022-08-19T15:15:00;39.60;35.10
21778;DHT22;11050;52.222;20.916;2022-08-19T15:17:26;39.50;35.80
21778;DHT22;11050;52.222;20.916;2022-08-19T15:19:52;39.60;36.70
21778;DHT22;11050;52.222;20.916;2022-08-19T15:22:18;39.60;36.40
21778;DHT22;11050;52.222;20.916;2022-08-19T15:24:44;39.60;35.70
21778;DHT22;11050;52.222;20.916;2022-08-19T15:27:12;39.70;35.50
21778;DHT22;11050;52.222;20.916;2022-08-19T15:29:39;39.70;35.70
21778;DHT22;11050;52.222;20.916;2022-08-19T15:32:08;39.60;35.50
21778;DHT22;11050;52.222;20.916;2022-08-19T15:34:34;39.60;36.20